createdAt,value
2023-12-23T00:01:37.379Z,11.88
2023-12-23T00:05:37.631Z,11.93
2023-12-23T00:09:37.892Z,11.53
2023-12-23T00:13:40.782Z,11.75
2023-12-23T00:17:41.230Z,11.90
2023-12-23T00:21:41.512Z,12.13
2023-12-23T00:25:41.771Z,11.70
2023-12-23T00:29:44.783Z,11.94
2023-12-23T00:33:49.251Z,11.99
2023-12-23T00:37:49.743Z,12.29
2023-12-23T00:41:50.052Z,11.74
2023-12-23T00:45:53.462Z,11.58
2023-12-23T00:49:53.714Z,11.43
2023-12-23T00:53:53.872Z,11.61
2023-12-23T00:57:54.166Z,11.63
2023-12-23T01:01:56.903Z,11.49
2023-12-23T01:05:57.273Z,11.72
2023-12-23T01:09:58.792Z,11.92
2023-12-23T01:13:59.103Z,11.72
2023-12-23T01:18:02.012Z,11.92
2023-12-23T01:22:02.825Z,11.66
2023-12-23T01:26:03.180Z,11.59
2023-12-23T01:30:04.970Z,11.16
2023-12-23T01:34:07.764Z,11.17
2023-12-23T01:38:08.769Z,11.67
2023-12-23T01:42:10.326Z,11.73
2023-12-23T01:46:11.020Z,11.80
2023-12-23T01:50:15.488Z,11.67
2023-12-23T01:54:16.118Z,11.19
2023-12-23T01:58:16.456Z,11.27
2023-12-23T02:02:17.991Z,11.30
2023-12-23T02:06:20.982Z,11.52
2023-12-23T02:10:21.871Z,11.26
2023-12-23T02:14:32.137Z,11.29
2023-12-23T02:18:32.306Z,11.15
2023-12-23T02:22:35.174Z,10.95
2023-12-23T02:26:40.005Z,11.02
2023-12-23T02:30:46.205Z,10.99
2023-12-23T02:34:47.387Z,11.01
2023-12-23T02:38:50.402Z,11.53
2023-12-23T02:42:51.190Z,11.14
2023-12-23T02:46:51.698Z,11.55
2023-12-23T02:50:52.217Z,11.48
2023-12-23T02:54:54.983Z,11.55
2023-12-23T02:58:55.775Z,11.37
2023-12-23T03:02:58.020Z,11.39
2023-12-23T03:06:58.174Z,11.29
2023-12-23T03:11:00.984Z,11.27
2023-12-23T03:15:01.582Z,11.46
2023-12-23T03:19:02.378Z,11.40
2023-12-23T03:23:02.650Z,11.08
2023-12-23T03:27:05.469Z,11.40
2023-12-23T03:31:05.692Z,11.10
2023-12-23T03:35:06.080Z,11.68
2023-12-23T03:39:08.420Z,10.82
2023-12-23T03:43:11.258Z,10.79
2023-12-23T03:47:11.877Z,10.80
2023-12-23T03:51:12.143Z,11.09
2023-12-23T03:55:15.215Z,10.90
2023-12-23T03:59:18.096Z,10.85
2023-12-23T04:03:19.372Z,11.05
2023-12-23T04:07:20.025Z,11.22
2023-12-23T04:11:20.415Z,10.80
2023-12-23T04:15:23.341Z,11.03
2023-12-23T04:19:23.578Z,10.83
2023-12-23T04:23:23.891Z,11.05
2023-12-23T04:27:24.294Z,11.25
2023-12-23T04:31:28.272Z,10.90
2023-12-23T04:35:28.568Z,11.02
2023-12-23T04:39:29.169Z,11.25
2023-12-23T04:43:31.622Z,11.11
2023-12-23T04:47:34.887Z,10.85
2023-12-23T04:51:35.155Z,10.78
2023-12-23T04:55:35.534Z,11.35
2023-12-23T04:59:35.930Z,11.40
2023-12-23T05:03:38.719Z,10.91
2023-12-23T05:07:39.153Z,11.07
2023-12-23T05:11:39.370Z,10.89
2023-12-23T05:15:39.564Z,10.89
2023-12-23T05:19:44.567Z,10.46
2023-12-23T05:23:44.813Z,10.66
2023-12-23T05:27:45.031Z,10.41
2023-12-23T05:31:45.231Z,10.61
2023-12-23T05:35:48.008Z,10.71
2023-12-23T05:39:49.677Z,10.61
2023-12-23T05:43:49.892Z,10.38
2023-12-23T05:47:51.925Z,10.93
2023-12-23T05:51:56.829Z,10.60
2023-12-23T05:55:57.113Z,11.01
2023-12-23T05:59:58.952Z,10.87
2023-12-23T06:03:59.306Z,10.97
2023-12-23T06:08:03.521Z,11.45
2023-12-23T06:12:03.776Z,11.33
2023-12-23T06:16:09.826Z,11.18
2023-12-23T06:20:11.726Z,11.25
2023-12-23T06:24:14.743Z,11.41
2023-12-23T06:28:15.133Z,11.13
2023-12-23T06:32:15.452Z,11.48
2023-12-23T06:36:15.724Z,11.75
2023-12-23T06:40:18.910Z,11.83
2023-12-23T06:44:19.115Z,11.30
2023-12-23T06:48:19.431Z,11.74
2023-12-23T06:52:19.798Z,11.80
2023-12-23T06:56:23.996Z,11.71
2023-12-23T07:00:24.480Z,11.74
2023-12-23T07:04:24.668Z,12.12
2023-12-23T07:08:25.713Z,12.42
2023-12-23T07:12:29.340Z,11.55
2023-12-23T07:16:29.995Z,12.11
2023-12-23T07:20:30.237Z,11.77
2023-12-23T07:24:30.488Z,12.28
2023-12-23T07:28:34.071Z,12.17
2023-12-23T07:32:34.404Z,12.38
2023-12-23T07:36:34.775Z,12.43
2023-12-23T07:40:36.574Z,12.41
2023-12-23T07:44:39.369Z,12.15
2023-12-23T07:48:39.540Z,12.61
2023-12-23T07:52:40.848Z,12.51
2023-12-23T07:56:41.010Z,12.40
2023-12-23T08:00:44.184Z,12.52
2023-12-23T08:04:44.805Z,12.43
2023-12-23T08:08:45.073Z,12.54
2023-12-23T08:12:45.400Z,12.28
2023-12-23T08:16:48.169Z,12.10
2023-12-23T08:20:48.441Z,11.95
2023-12-23T08:24:48.665Z,12.57
2023-12-23T08:28:48.900Z,11.99
2023-12-23T08:32:52.359Z,12.25
2023-12-23T08:36:52.977Z,12.33
2023-12-23T08:40:53.217Z,12.25
2023-12-23T08:44:53.734Z,11.96
2023-12-23T08:48:56.559Z,12.58
2023-12-23T08:52:56.761Z,12.26
2023-12-23T08:56:56.971Z,12.38
2023-12-23T09:00:57.267Z,12.25
2023-12-23T09:05:00.075Z,12.32
2023-12-23T09:09:01.359Z,12.22
2023-12-23T09:13:01.541Z,11.82
2023-12-23T09:17:01.754Z,12.30
2023-12-23T09:21:05.162Z,12.40
2023-12-23T09:25:05.635Z,12.31
2023-12-23T09:29:06.096Z,12.42
2023-12-23T09:33:07.296Z,12.63
2023-12-23T09:37:10.383Z,11.94
2023-12-23T09:41:10.722Z,12.34
2023-12-23T09:45:12.150Z,12.43
2023-12-23T09:49:12.470Z,12.42
2023-12-23T09:53:17.677Z,12.48
2023-12-23T09:57:18.792Z,12.27
2023-12-23T10:01:18.954Z,12.31
2023-12-23T10:05:22.394Z,11.98
2023-12-23T10:09:25.757Z,12.15
2023-12-23T10:13:25.964Z,12.34
2023-12-23T10:17:26.293Z,12.42
2023-12-23T10:21:26.533Z,12.50
2023-12-23T10:25:29.371Z,12.38
2023-12-23T10:29:35.162Z,12.05
2023-12-23T10:33:42.413Z,12.18
2023-12-23T10:37:46.703Z,12.25
2023-12-23T10:41:55.466Z,12.55
2023-12-23T10:45:58.523Z,12.24
2023-12-23T10:50:00.568Z,12.35
2023-12-23T10:54:04.873Z,12.60
2023-12-23T10:58:10.800Z,12.01
2023-12-23T11:02:17.428Z,12.55
2023-12-23T11:06:19.524Z,12.62
2023-12-23T11:10:22.373Z,12.68
2023-12-23T11:14:25.581Z,12.35
2023-12-23T11:18:26.213Z,12.33
2023-12-23T11:22:31.867Z,12.41
2023-12-23T11:26:46.289Z,12.11
2023-12-23T11:30:54.235Z,12.11
2023-12-23T11:34:55.467Z,12.58
2023-12-23T11:38:57.407Z,12.45
2023-12-23T11:42:59.031Z,12.30
2023-12-23T11:47:02.513Z,12.38
2023-12-23T11:51:04.103Z,12.86
2023-12-23T11:55:04.949Z,12.20
2023-12-23T11:59:05.555Z,12.32
2023-12-23T12:03:09.314Z,12.55
2023-12-23T12:07:09.927Z,12.60
2023-12-23T12:11:13.449Z,12.78
2023-12-23T12:15:14.544Z,12.59
2023-12-23T12:19:17.552Z,12.47
2023-12-23T12:23:18.528Z,12.26
2023-12-23T12:27:18.957Z,12.53
2023-12-23T12:31:19.227Z,12.39
2023-12-23T12:35:22.884Z,12.53
2023-12-23T12:39:23.367Z,12.44
2023-12-23T12:43:25.717Z,12.85
2023-12-23T12:47:27.666Z,12.55
2023-12-23T12:51:30.917Z,12.54
2023-12-23T12:55:31.225Z,12.79
2023-12-23T12:59:31.968Z,12.53
2023-12-23T13:03:32.592Z,12.18
2023-12-23T13:07:35.370Z,12.55
2023-12-23T13:11:36.420Z,12.95
2023-12-23T13:15:36.750Z,12.74
2023-12-23T13:19:37.096Z,12.81
2023-12-23T13:23:40.111Z,12.64
2023-12-23T13:27:40.799Z,12.15
2023-12-23T13:31:41.251Z,12.33
2023-12-23T13:35:41.687Z,12.22
2023-12-23T13:39:44.441Z,12.56
2023-12-23T13:43:44.817Z,12.37
2023-12-23T13:47:45.281Z,11.78
2023-12-23T13:51:46.615Z,12.50
2023-12-23T13:55:51.270Z,12.71
2023-12-23T13:59:52.404Z,12.38
2023-12-23T14:03:52.761Z,12.51
2023-12-23T14:07:53.005Z,12.62
2023-12-23T14:11:55.852Z,12.65
2023-12-23T14:15:56.192Z,12.21
2023-12-23T14:19:56.622Z,12.53
2023-12-23T14:23:57.243Z,12.06
2023-12-23T14:28:00.062Z,12.85
2023-12-23T14:32:00.764Z,13.09
2023-12-23T14:36:01.512Z,11.94
2023-12-23T14:40:02.865Z,12.23
2023-12-23T14:44:06.755Z,12.38
2023-12-23T14:48:07.636Z,12.37
2023-12-23T14:52:09.120Z,11.91
2023-12-23T14:56:10.293Z,12.30
2023-12-23T15:00:17.041Z,12.56
2023-12-23T15:04:17.550Z,11.97
2023-12-23T15:08:18.167Z,12.08
2023-12-23T15:12:20.686Z,12.16
2023-12-23T15:16:23.802Z,12.72
2023-12-23T15:20:24.046Z,12.10
2023-12-23T15:24:25.052Z,12.07
2023-12-23T15:28:25.676Z,12.23
2023-12-23T15:32:28.629Z,12.13
2023-12-23T15:36:28.863Z,12.58
2023-12-23T15:40:29.115Z,12.09
2023-12-23T15:44:31.111Z,12.47
2023-12-23T15:48:34.062Z,12.83
2023-12-23T15:52:36.023Z,12.97
2023-12-23T15:56:40.930Z,12.45
2023-12-23T16:00:41.225Z,12.92
2023-12-23T16:04:43.994Z,12.93
2023-12-23T16:08:44.325Z,12.35
2023-12-23T16:12:44.781Z,12.51
2023-12-23T16:16:45.049Z,12.45
2023-12-23T16:20:48.069Z,12.37
2023-12-23T16:24:48.503Z,12.58
2023-12-23T16:28:48.928Z,12.69
2023-12-23T16:32:50.389Z,12.33
2023-12-23T16:36:53.522Z,12.43
2023-12-23T16:40:53.973Z,12.70
2023-12-23T16:44:54.804Z,12.46
2023-12-23T16:48:55.428Z,12.25
2023-12-23T16:52:58.667Z,12.78
2023-12-23T16:56:59.319Z,12.76
2023-12-23T17:00:59.782Z,12.54
2023-12-23T17:05:00.356Z,12.07
2023-12-23T17:09:03.541Z,12.45
2023-12-23T17:13:03.885Z,12.47
2023-12-23T17:17:04.732Z,12.96
2023-12-23T17:21:05.177Z,13.30
2023-12-23T17:25:08.857Z,12.86
2023-12-23T17:29:09.456Z,12.94
2023-12-23T17:33:14.249Z,12.79
2023-12-23T17:37:15.043Z,12.95
2023-12-23T17:41:18.373Z,12.86
2023-12-23T17:45:18.948Z,12.52
2023-12-23T17:49:20.338Z,12.65
2023-12-23T17:53:22.877Z,12.47
2023-12-23T17:57:28.366Z,12.84
2023-12-23T18:01:28.862Z,12.32
2023-12-23T18:05:29.270Z,12.08
2023-12-23T18:09:29.668Z,12.57
2023-12-23T18:13:32.586Z,12.28
2023-12-23T18:17:33.090Z,12.46
2023-12-23T18:21:33.491Z,12.32
2023-12-23T18:25:33.946Z,12.36
2023-12-23T18:29:37.043Z,12.22
2023-12-23T18:33:37.584Z,12.91
2023-12-23T18:37:38.329Z,12.83
2023-12-23T18:41:38.709Z,12.91
2023-12-23T18:45:41.823Z,12.46
2023-12-23T18:49:42.899Z,12.17
2023-12-23T18:53:43.540Z,12.42
2023-12-23T18:57:44.323Z,12.53
2023-12-23T19:01:47.326Z,12.20
2023-12-23T19:05:47.635Z,12.23
2023-12-23T19:09:47.972Z,12.40
2023-12-23T19:13:48.230Z,12.98
2023-12-23T19:17:54.076Z,12.81
2023-12-23T19:21:55.760Z,12.88
2023-12-23T19:25:56.795Z,13.07
2023-12-23T19:29:57.146Z,12.78
2023-12-23T19:34:01.572Z,12.85
2023-12-23T19:38:02.592Z,12.69
2023-12-23T19:42:04.817Z,12.43
2023-12-23T19:46:05.765Z,12.59
2023-12-23T19:50:10.637Z,12.77
2023-12-23T19:54:11.002Z,13.18
2023-12-23T19:58:11.685Z,13.03
2023-12-23T20:02:12.251Z,13.27
2023-12-23T20:06:17.171Z,12.52
2023-12-23T20:10:17.482Z,12.71
2023-12-23T20:14:17.891Z,12.60
2023-12-23T20:18:18.295Z,12.49
2023-12-23T20:22:24.041Z,12.90
2023-12-23T20:26:24.949Z,12.69
2023-12-23T20:30:25.430Z,12.81
2023-12-23T20:34:26.216Z,13.18
2023-12-23T20:38:29.622Z,12.97
2023-12-23T20:42:30.611Z,13.60
2023-12-23T20:46:31.796Z,12.90
2023-12-23T20:50:32.404Z,12.16
2023-12-23T20:54:35.394Z,13.30
2023-12-23T20:58:35.733Z,12.76
2023-12-23T21:02:36.242Z,13.27
2023-12-23T21:06:36.680Z,12.75
2023-12-23T21:10:39.581Z,12.74
2023-12-23T21:14:39.789Z,12.59
2023-12-23T21:18:44.047Z,12.68
2023-12-23T21:22:45.803Z,13.01
2023-12-23T21:26:49.049Z,13.29
2023-12-23T21:30:49.733Z,13.44
2023-12-23T21:34:50.534Z,12.71
2023-12-23T21:38:50.757Z,12.89
2023-12-23T21:42:53.833Z,12.82
2023-12-23T21:46:56.764Z,12.97
2023-12-23T21:50:57.429Z,12.83
2023-12-23T21:54:57.992Z,12.93
2023-12-23T21:59:00.860Z,12.98
2023-12-23T22:03:01.410Z,12.50
2023-12-23T22:07:01.661Z,13.47
2023-12-23T22:11:01.969Z,12.88
2023-12-23T22:15:06.726Z,12.90
2023-12-23T22:19:07.220Z,13.16
2023-12-23T22:23:08.082Z,12.89
2023-12-23T22:27:08.968Z,13.57
2023-12-23T22:31:12.359Z,13.19
2023-12-23T22:35:13.117Z,13.55
2023-12-23T22:39:13.504Z,13.44
2023-12-23T22:43:14.470Z,13.28
2023-12-23T22:47:17.690Z,12.63
2023-12-23T22:51:18.414Z,12.52
2023-12-23T22:55:18.961Z,12.98
2023-12-23T22:59:19.585Z,13.22
2023-12-23T23:03:22.578Z,13.10
2023-12-23T23:07:23.030Z,13.00
2023-12-23T23:11:23.543Z,12.91
2023-12-23T23:15:24.448Z,13.20
2023-12-23T23:19:27.420Z,13.38
2023-12-23T23:23:28.061Z,13.65
2023-12-23T23:27:29.068Z,12.77
2023-12-23T23:31:29.346Z,13.15
2023-12-23T23:35:32.167Z,13.54
2023-12-23T23:39:33.745Z,12.96
2023-12-23T23:43:35.151Z,13.38
2023-12-23T23:47:35.525Z,13.98
2023-12-23T23:51:39.852Z,13.97
2023-12-23T23:55:40.790Z,13.26
2023-12-23T23:59:41.035Z,13.44
